Time;durP1;ratioP1;P1;durP2;ratioP2;P2;SDS_P1;SDS_P2;PMS_P1;PMS_P2;Temp;Humidity;BMP_temperature;BMP_pressure;BME280_temperature;BME280_humidity;BME280_pressure;Samples;Min_cycle;Max_cycle;Signal;HPM_P1;HPM_P2
2022/09/09 00:01:13;;;;;;;13.77;8.25;;;;;;;20.80;73.49;100694.13;5050096;28;20048;-74
2022/09/09 00:03:47;;;;;;;16.00;8.80;;;;;;;20.57;73.09;100667.28;5047531;28;20055;-73
2022/09/09 00:06:23;;;;;;;18.30;8.10;;;;;;;20.82;73.36;100696.63;5045804;28;20049;-74
2022/09/09 00:09:22;;;;;;;15.95;7.78;;;;;;;20.83;73.39;100703.97;5049799;28;20434;-73
2022/09/09 00:11:59;;;;;;;15.43;7.47;;;;;;;20.69;73.33;100683.56;5048399;28;20056;-73
2022/09/09 00:14:46;;;;;;;16.13;7.10;;;;;;;20.77;73.38;100703.34;5044581;28;20041;-74
2022/09/09 00:17:35;;;;;;;18.83;8.32;;;;;;;20.75;73.00;100682.16;5049070;28;20044;-73
2022/09/09 00:20:14;;;;;;;18.27;7.55;;;;;;;20.87;72.95;100685.06;5046067;28;20045;-73
2022/09/09 00:22:59;;;;;;;21.00;8.68;;;;;;;20.95;72.83;100675.63;5045911;28;20125;-73
2022/09/09 00:25:54;;;;;;;66.43;10.18;;;;;;;21.12;72.85;100702.19;5037675;28;20061;-74
2022/09/09 00:28:27;;;;;;;27.25;9.57;;;;;;;21.14;72.22;100711.22;5028388;28;20427;-73
2022/09/09 00:30:57;;;;;;;29.27;9.50;;;;;;;21.08;72.47;100704.09;5041606;28;20050;-74
2022/09/09 00:33:26;;;;;;;38.72;11.27;;;;;;;21.00;72.35;100700.16;5044601;28;20049;-74
2022/09/09 00:36:00;;;;;;;31.05;11.40;;;;;;;20.93;72.41;100709.22;5041254;28;20056;-73
2022/09/09 00:38:37;;;;;;;38.75;11.95;;;;;;;20.94;72.60;100708.03;5041543;28;20099;-73
2022/09/09 00:41:10;;;;;;;23.55;9.65;;;;;;;20.94;72.20;100705.19;5048609;28;20060;-73
2022/09/09 00:43:40;;;;;;;23.90;10.15;;;;;;;21.01;72.09;100708.31;5043615;28;20052;-72
2022/09/09 00:46:25;;;;;;;20.15;9.18;;;;;;;21.04;72.38;100710.47;5039908;28;20061;-74
2022/09/09 00:48:52;;;;;;;22.60;8.05;;;;;;;21.09;72.27;100719.94;5047413;28;20063;-73
2022/09/09 00:51:36;;;;;;;19.70;8.07;;;;;;;21.04;72.35;100712.47;5044636;28;20049;-74
2022/09/09 00:54:23;;;;;;;21.50;8.77;;;;;;;20.88;72.17;100698.06;5045107;28;20067;-73
2022/09/09 00:57:18;;;;;;;38.65;9.30;;;;;;;20.84;72.29;100708.47;5039242;28;20049;-73
2022/09/09 00:59:51;;;;;;;30.25;10.20;;;;;;;20.51;72.48;100665.81;5037729;28;20524;-72
2022/09/09 01:02:18;;;;;;;58.22;11.18;;;;;;;20.79;72.57;100711.53;5044791;28;20055;-74
2022/09/09 01:04:45;;;;;;;42.63;13.10;;;;;;;20.66;72.25;100689.91;5035065;28;20044;-73
2022/09/09 01:07:18;;;;;;;36.10;11.40;;;;;;;20.71;72.65;100695.38;5044659;28;20507;-74
2022/09/09 01:09:57;;;;;;;31.25;11.23;;;;;;;20.46;72.42;100669.66;5043421;28;20042;-73
2022/09/09 01:12:38;;;;;;;59.47;14.18;;;;;;;20.75;72.69;100710.53;5048003;28;20045;-73
2022/09/09 01:15:11;;;;;;;49.33;13.55;;;;;;;20.81;72.74;100692.13;5027098;28;20054;-74
2022/09/09 01:17:44;;;;;;;32.67;11.07;;;;;;;20.82;72.43;100693.81;5041206;28;20049;-73
2022/09/09 01:20:20;;;;;;;55.55;12.75;;;;;;;20.78;72.56;100684.28;5045751;28;20060;-74
2022/09/09 01:23:01;;;;;;;42.03;12.75;;;;;;;20.67;72.60;100680.22;5042396;28;20387;-74
2022/09/09 01:26:05;;;;;;;38.53;12.38;;;;;;;20.69;72.49;100686.38;5044111;28;20392;-74
2022/09/09 01:28:35;;;;;;;40.30;14.70;;;;;;;20.68;72.26;100673.34;5043206;28;20449;-74
2022/09/09 01:31:08;;;;;;;65.47;14.27;;;;;;;20.70;72.66;100674.69;5046319;28;20084;-72
2022/09/09 01:33:35;;;;;;;73.90;15.43;;;;;;;20.48;72.47;100681.50;5036200;28;20076;-73
2022/09/09 01:36:20;;;;;;;58.60;16.10;;;;;;;20.48;72.46;100687.19;5045911;28;20045;-74
2022/09/09 01:38:47;;;;;;;81.47;17.25;;;;;;;20.40;72.42;100678.72;5037409;28;20093;-73
2022/09/09 01:41:14;;;;;;;89.13;17.02;;;;;;;20.23;72.65;100665.47;5045676;28;20049;-73
2022/09/09 01:43:41;;;;;;;56.17;14.85;;;;;;;20.30;72.88;100682.78;5030654;28;20068;-72
2022/09/09 01:46:08;;;;;;;41.45;14.00;;;;;;;20.25;72.84;100680.16;5044260;28;20048;-73
2022/09/09 01:48:35;;;;;;;45.80;13.75;;;;;;;20.28;73.05;100671.78;5044213;28;20053;-73
2022/09/09 01:51:02;;;;;;;41.20;12.98;;;;;;;20.30;73.00;100671.44;5048429;28;20049;-73
2022/09/09 01:53:29;;;;;;;39.03;12.45;;;;;;;20.41;73.44;100680.38;5048437;28;20045;-73
2022/09/09 01:56:24;;;;;;;53.50;15.18;;;;;;;20.49;73.12;100686.00;5030804;28;20041;-73
2022/09/09 01:58:53;;;;;;;41.20;11.95;;;;;;;20.49;73.03;100691.66;5046284;28;20084;-73
2022/09/09 02:01:36;;;;;;;35.15;10.93;;;;;;;20.39;73.23;100685.56;5047197;28;20053;-72
2022/09/09 02:04:17;;;;;;;36.35;10.98;;;;;;;20.21;73.29;100670.69;5044208;28;20049;-74
2022/09/09 02:06:46;;;;;;;30.50;9.65;;;;;;;20.25;73.33;100685.81;5030663;28;20045;-74
2022/09/09 02:09:18;;;;;;;44.13;11.25;;;;;;;20.10;73.31;100665.41;5050514;28;20053;-73
2022/09/09 02:11:49;;;;;;;46.13;11.13;;;;;;;20.17;73.73;100672.50;5032147;28;20048;-74
2022/09/09 02:14:24;;;;;;;52.10;12.23;;;;;;;20.26;73.88;100659.13;5049099;28;20048;-73
2022/09/09 02:17:03;;;;;;;42.42;12.77;;;;;;;20.27;73.82;100664.47;5044471;28;20045;-73
2022/09/09 02:19:35;;;;;;;43.33;13.73;;;;;;;20.27;73.50;100646.59;5045774;28;20080;-73
2022/09/09 02:22:04;;;;;;;59.97;13.52;;;;;;;20.36;73.35;100648.19;5042157;28;20045;-74
2022/09/09 02:24:35;;;;;;;30.73;13.23;;;;;;;20.42;73.32;100657.34;5035520;28;20052;-74
2022/09/09 02:27:08;;;;;;;39.67;11.90;;;;;;;20.38;73.49;100645.03;5046824;28;20076;-73
2022/09/09 02:29:42;;;;;;;48.60;13.52;;;;;;;20.36;73.19;100627.50;5031450;28;20415;-73
2022/09/09 02:32:22;;;;;;;47.65;13.63;;;;;;;20.46;73.14;100655.47;5047291;28;20045;-75
2022/09/09 02:34:55;;;;;;;51.45;13.55;;;;;;;20.47;72.94;100654.28;5025916;28;20049;-73
2022/09/09 02:37:28;;;;;;;42.28;12.40;;;;;;;20.30;72.87;100632.56;5039116;28;20059;-73
2022/09/09 02:39:55;;;;;;;66.43;14.68;;;;;;;20.34;73.05;100646.88;5033115;28;20057;-73
2022/09/09 02:42:23;;;;;;;58.88;12.50;;;;;;;20.48;73.13;100661.66;5052541;28;20443;-73
2022/09/09 02:44:50;;;;;;;37.78;12.43;;;;;;;20.47;73.52;100659.97;5049965;28;20048;-74
2022/09/09 02:47:20;;;;;;;57.45;14.07;;;;;;;20.51;72.92;100662.97;5051892;28;20056;-73
2022/09/09 02:49:49;;;;;;;;;;;;;;;20.40;73.39;100668.19;5040370;28;20439;-74
2022/09/09 02:52:22;;;;;;;52.63;13.63;;;;;;;20.46;72.84;100663.97;5049560;28;19920;-73
2022/09/09 02:54:55;;;;;;;81.50;14.10;;;;;;;20.43;73.04;100681.69;5042994;28;20407;-73
2022/09/09 02:57:31;;;;;;;56.63;15.95;;;;;;;20.13;73.15;100638.34;5049814;28;20410;-73
2022/09/09 03:00:00;;;;;;;56.83;14.45;;;;;;;20.05;73.23;100625.06;5027655;28;20053;-73
2022/09/09 03:02:26;;;;;;;77.80;17.58;;;;;;;20.36;73.09;100673.72;5047770;28;20056;-73
2022/09/09 03:04:53;;;;;;;55.30;15.32;;;;;;;20.08;73.33;100647.88;5031773;28;20060;-74
2022/09/09 03:07:21;;;;;;;53.40;14.27;;;;;;;20.26;73.27;100676.97;5046964;28;20442;-73
2022/09/09 03:09:48;;;;;;;40.33;12.15;;;;;;;20.12;73.53;100662.19;5046770;28;20060;-74
2022/09/09 03:12:16;;;;;;;41.13;12.30;;;;;;;20.11;73.63;100669.06;5045957;28;20052;-74
2022/09/09 03:14:45;;;;;;;47.70;13.93;;;;;;;20.08;73.44;100673.41;5047429;28;20495;-73
2022/09/09 03:17:12;;;;;;;40.73;13.37;;;;;;;20.06;73.66;100672.91;5044990;28;20052;-74
2022/09/09 03:19:39;;;;;;;34.50;12.13;;;;;;;20.00;73.70;100662.94;5048773;28;20079;-73
2022/09/09 03:22:06;;;;;;;29.13;11.40;;;;;;;20.13;73.58;100656.19;5046629;28;20052;-73
2022/09/09 03:24:33;;;;;;;26.63;10.82;;;;;;;20.20;73.32;100666.97;5034848;28;20045;-73
2022/09/09 03:27:00;;;;;;;32.78;9.98;;;;;;;20.05;73.74;100670.41;5045032;28;20055;-74
2022/09/09 03:29:26;;;;;;;29.13;10.35;;;;;;;19.98;73.67;100673.78;5021804;28;20057;-73
2022/09/09 03:31:53;;;;;;;34.83;11.20;;;;;;;20.03;73.65;100667.09;5046871;28;20049;-73
2022/09/09 03:34:20;;;;;;;51.47;14.27;;;;;;;20.15;73.57;100684.19;5028199;28;20155;-74
2022/09/09 03:36:49;;;;;;;43.42;12.90;;;;;;;20.10;73.48;100650.38;5028475;28;20060;-73
2022/09/09 03:39:15;;;;;;;37.00;13.35;;;;;;;19.94;73.66;100629.47;5047378;28;20048;-73
2022/09/09 03:41:45;;;;;;;56.08;16.75;;;;;;;20.07;73.57;100651.91;5045824;28;20057;-73
2022/09/09 03:44:12;;;;;;;47.35;14.80;;;;;;;20.29;73.33;100676.28;5048871;28;20515;-74
2022/09/09 03:46:39;;;;;;;41.97;13.15;;;;;;;20.41;73.55;100658.53;5033593;28;20060;-73
2022/09/09 03:49:05;;;;;;;31.83;11.93;;;;;;;20.44;73.13;100637.13;5044129;28;20045;-74
2022/09/09 03:51:36;;;;;;;36.90;11.90;;;;;;;20.66;72.72;100661.53;5046678;28;20052;-73
2022/09/09 03:54:04;;;;;;;32.03;12.02;;;;;;;20.51;73.00;100655.31;5049885;28;20438;-73
2022/09/09 03:56:31;;;;;;;56.03;11.50;;;;;;;20.50;72.82;100647.09;5043073;28;20435;-73
2022/09/09 03:58:58;;;;;;;36.05;10.38;;;;;;;20.42;72.58;100637.50;5029796;28;20056;-73
2022/09/09 04:01:26;;;;;;;30.90;9.98;;;;;;;20.40;72.77;100633.34;5039188;28;20048;-74
2022/09/09 04:03:52;;;;;;;27.88;9.27;;;;;;;20.53;72.83;100657.78;5046989;28;20491;-73
2022/09/09 04:06:20;;;;;;;28.17;10.25;;;;;;;20.42;72.76;100634.66;5023008;28;20055;-74
2022/09/09 04:08:48;;;;;;;45.10;10.13;;;;;;;20.32;72.55;100621.72;5043374;28;20045;-74
2022/09/09 04:11:15;;;;;;;56.90;10.32;;;;;;;20.37;72.46;100632.00;5047813;28;20049;-73
2022/09/09 04:13:44;;;;;;;27.98;9.35;;;;;;;20.47;72.70;100647.78;5047997;28;20045;-73
2022/09/09 04:16:13;;;;;;;32.47;9.15;;;;;;;20.43;72.50;100635.47;5047752;28;20065;-72
2022/09/09 04:18:40;;;;;;;23.73;9.73;;;;;;;20.46;72.52;100640.47;5050988;28;20088;-73
2022/09/09 04:21:08;;;;;;;27.35;9.73;;;;;;;20.31;72.25;100602.22;5047249;28;20052;-73
2022/09/09 04:23:35;;;;;;;42.60;11.40;;;;;;;20.46;72.53;100629.94;5048024;28;20037;-74
2022/09/09 04:26:03;;;;;;;30.75;10.27;;;;;;;20.40;72.29;100642.66;5048572;28;20045;-73
2022/09/09 04:28:33;;;;;;;43.60;9.95;;;;;;;20.22;72.49;100618.44;5048684;28;20053;-73
2022/09/09 04:31:09;;;;;;;42.83;9.75;;;;;;;20.31;72.64;100639.06;5047658;28;20694;-74
2022/09/09 04:33:38;;;;;;;48.75;11.52;;;;;;;20.27;72.53;100655.09;5031538;28;20672;-74
2022/09/09 04:36:07;;;;;;;36.15;9.50;;;;;;;20.34;72.91;100649.72;5045674;28;20049;-73
2022/09/09 04:38:34;;;;;;;46.63;9.68;;;;;;;20.26;72.58;100628.75;5029017;28;20049;-74
2022/09/09 04:41:01;;;;;;;30.38;9.23;;;;;;;20.45;72.53;100648.16;5050578;28;20057;-74
2022/09/09 04:43:28;;;;;;;39.08;9.13;;;;;;;20.38;72.08;100639.38;5042967;28;20521;-74
2022/09/09 04:45:55;;;;;;;50.15;9.18;;;;;;;20.21;72.26;100620.47;5044593;28;20123;-73
2022/09/09 04:48:22;;;;;;;34.40;9.95;;;;;;;20.26;72.16;100636.44;5046882;28;20081;-73
2022/09/09 04:50:59;;;;;;;61.63;10.23;;;;;;;20.40;72.25;100656.03;5045064;28;20056;-73
2022/09/09 04:53:26;;;;;;;29.50;9.10;;;;;;;20.43;72.15;100663.84;5050291;28;20187;-74
2022/09/09 04:56:02;;;;;;;43.58;9.57;;;;;;;20.34;72.31;100638.38;5050938;28;20049;-75
2022/09/09 04:58:29;;;;;;;62.28;9.77;;;;;;;20.43;71.84;100653.31;5045135;28;20418;-74
2022/09/09 05:01:13;;;;;;;92.57;11.25;;;;;;;20.27;72.00;100627.59;5041402;28;20049;-73
2022/09/09 05:03:40;;;;;;;55.92;10.32;;;;;;;20.40;71.97;100668.19;5039442;28;20056;-74
2022/09/09 05:06:10;;;;;;;67.63;10.25;;;;;;;20.30;71.82;100660.09;5047359;28;20050;-74
2022/09/09 05:08:38;;;;;;;58.13;10.25;;;;;;;20.25;72.14;100657.47;5048033;28;20052;-73
2022/09/09 05:11:20;;;;;;;49.22;9.30;;;;;;;20.22;72.08;100646.81;5046181;28;20052;-73
2022/09/09 05:13:47;;;;;;;68.25;9.70;;;;;;;20.28;71.96;100660.44;5036727;28;20057;-74
2022/09/09 05:16:14;;;;;;;61.63;9.13;;;;;;;20.29;71.87;100658.44;5027773;28;20060;-73
2022/09/09 05:18:45;;;;;;;47.92;8.73;;;;;;;20.30;71.75;100654.41;5026135;28;20064;-73
2022/09/09 05:21:15;;;;;;;29.35;7.30;;;;;;;20.21;71.72;100654.50;5045292;28;20410;-73
2022/09/09 05:23:41;;;;;;;39.65;9.05;;;;;;;19.88;71.74;100603.31;5044000;28;20045;-74
2022/09/09 05:26:17;;;;;;;29.55;7.10;;;;;;;20.35;71.73;100662.75;5019879;28;20054;-74
2022/09/09 05:28:45;;;;;;;46.55;7.82;;;;;;;20.33;71.64;100639.53;5044051;28;20071;-73
2022/09/09 05:31:14;;;;;;;42.35;7.82;;;;;;;20.35;71.27;100640.03;5047071;28;20052;-72
2022/09/09 05:33:43;;;;;;;68.83;9.50;;;;;;;20.36;71.20;100662.38;5047438;28;20100;-73
2022/09/09 05:36:13;;;;;;;61.67;7.33;;;;;;;20.27;71.15;100672.97;5045248;28;20053;-72
2022/09/09 05:38:41;;;;;;;79.25;8.30;;;;;;;20.18;71.16;100671.34;5045282;28;20060;-71
2022/09/09 05:41:09;;;;;;;25.48;7.68;;;;;;;19.89;71.76;100650.31;5051870;28;20416;-72
2022/09/09 05:43:37;;;;;;;87.03;8.60;;;;;;;19.85;71.99;100644.50;5043844;28;20041;-72
2022/09/09 05:46:08;;;;;;;58.97;7.95;;;;;;;20.04;71.89;100669.59;5042771;28;20056;-71
2022/09/09 05:48:37;;;;;;;74.13;7.72;;;;;;;20.03;71.73;100656.59;5039899;28;20239;-77
2022/09/09 05:51:07;;;;;;;57.17;8.57;;;;;;;20.02;71.42;100654.91;5040122;28;20048;-79
2022/09/09 05:53:34;;;;;;;79.38;8.98;;;;;;;19.62;71.38;100629.75;5045747;28;20052;-77
2022/09/09 05:56:03;;;;;;;60.33;6.60;;;;;;;19.75;71.78;100655.38;5040183;28;20057;-80
2022/09/09 05:58:34;;;;;;;96.10;8.02;;;;;;;19.76;71.92;100676.88;5049801;28;20191;-78
2022/09/09 06:01:09;;;;;;;55.45;7.57;;;;;;;19.61;72.17;100652.75;5045145;28;20049;-77
2022/09/09 06:03:39;;;;;;;78.80;7.57;;;;;;;19.65;72.25;100671.59;5045069;28;20048;-80
2022/09/09 06:06:09;;;;;;;42.95;6.43;;;;;;;19.69;72.09;100680.25;5047828;28;20621;-75
2022/09/09 06:08:39;;;;;;;57.33;8.52;;;;;;;19.70;72.41;100675.44;5046544;28;20457;-77
2022/09/09 06:11:08;;;;;;;57.13;8.07;;;;;;;19.67;72.30;100684.59;5032931;28;20049;-75
2022/09/09 06:13:38;;;;;;;31.52;6.50;;;;;;;19.53;72.46;100665.78;5048944;28;20049;-72
2022/09/09 06:16:07;;;;;;;;;;;;;;;19.50;72.82;100683.44;5051360;28;20048;-74
2022/09/09 06:18:34;;;;;;;34.95;6.07;;;;;;;19.61;72.60;100684.75;5052174;28;19920;-74
2022/09/09 06:21:04;;;;;;;40.38;6.95;;;;;;;19.58;72.62;100674.09;5042640;28;20151;-72
2022/09/09 06:23:31;;;;;;;31.55;6.75;;;;;;;19.36;72.81;100658.16;5052329;28;20049;-80
2022/09/09 06:26:05;;;;;;;48.47;7.35;;;;;;;19.56;72.81;100692.59;5063187;28;20057;-75
2022/09/09 06:28:33;;;;;;;56.75;7.25;;;;;;;19.53;72.88;100688.44;5041256;28;20136;-74
2022/09/09 06:31:03;;;;;;;45.53;6.97;;;;;;;19.58;72.86;100695.91;5054978;28;20499;-73
2022/09/09 06:33:31;;;;;;;;;;;;;;;19.44;73.27;100689.63;5054766;28;20052;-76
2022/09/09 06:35:58;;;;;;;57.75;7.70;;;;;;;19.45;72.93;100683.63;5050560;28;20367;-73
2022/09/09 06:38:25;;;;;;;55.05;9.32;;;;;;;19.56;72.92;100707.59;5037867;28;20056;-74
2022/09/09 06:40:58;;;;;;;27.25;9.05;;;;;;;19.60;73.26;100700.09;5024585;28;20065;-74
2022/09/09 06:43:26;;;;;;;45.20;10.32;;;;;;;19.78;73.30;100700.88;5032109;28;20053;-79
2022/09/09 06:46:04;;;;;;;46.17;9.35;;;;;;;19.93;73.18;100702.34;5030836;28;20649;-80
2022/09/09 06:48:31;;;;;;;49.03;7.55;;;;;;;19.94;72.78;100691.81;5043674;28;20037;-79
2022/09/09 06:51:07;;;;;;;36.42;7.30;;;;;;;20.12;73.36;100684.88;5043888;28;20049;-81
2022/09/09 06:53:35;;;;;;;37.15;6.82;;;;;;;20.42;72.71;100713.25;5051628;28;20059;-80
2022/09/09 06:56:22;;;;;;;28.85;6.65;;;;;;;20.40;72.57;100721.25;5048405;28;20049;-81
2022/09/09 06:58:51;;;;;;;65.88;7.72;;;;;;;20.16;72.63;100707.72;5046410;28;20045;-75
2022/09/09 07:01:21;;;;;;;29.87;5.97;;;;;;;20.13;72.58;100715.72;5048769;28;20064;-77
2022/09/09 07:03:50;;;;;;;17.15;5.53;;;;;;;20.12;72.77;100714.06;5029176;28;20299;-75
2022/09/09 07:06:28;;;;;;;57.20;6.15;;;;;;;20.23;72.48;100722.19;5050176;28;20045;-74
2022/09/09 07:08:58;;;;;;;59.33;6.72;;;;;;;20.35;72.37;100719.47;5050874;28;20071;-77
2022/09/09 07:11:28;;;;;;;51.42;8.15;;;;;;;20.34;72.39;100709.28;5049458;28;20407;-72
2022/09/09 07:13:58;;;;;;;67.28;8.82;;;;;;;20.47;72.13;100721.53;5049811;28;20048;-72
2022/09/09 07:16:27;;;;;;;22.92;6.57;;;;;;;20.34;71.88;100697.94;5044023;28;20053;-72
2022/09/09 07:18:57;;;;;;;10.75;5.25;;;;;;;20.46;71.90;100715.03;5028080;28;20118;-73
2022/09/09 07:21:26;;;;;;;11.98;5.32;;;;;;;20.51;71.79;100712.06;5046132;28;20045;-74
2022/09/09 07:23:53;;;;;;;12.52;4.55;;;;;;;20.69;71.54;100732.63;5044039;28;20052;-74
2022/09/09 07:26:23;;;;;;;13.70;6.50;;;;;;;20.47;71.84;100685.50;5025893;28;20084;-74
2022/09/09 07:28:51;;;;;;;12.57;5.88;;;;;;;20.64;71.44;100704.44;5044783;28;20080;-74
2022/09/09 07:31:21;;;;;;;8.35;5.03;;;;;;;20.85;71.50;100724.31;5042180;28;20052;-74
2022/09/09 07:33:48;;;;;;;12.55;5.95;;;;;;;20.85;71.55;100723.47;5046281;28;20136;-75
2022/09/09 07:36:15;;;;;;;11.57;5.85;;;;;;;21.10;71.81;100745.16;5041950;28;20414;-75
2022/09/09 07:38:45;;;;;;;9.55;5.25;;;;;;;21.28;71.30;100737.31;5044799;28;20056;-75
2022/09/09 07:41:14;;;;;;;;;;;;;;;21.42;71.63;100735.03;5041364;28;20064;-75
2022/09/09 07:43:43;;;;;;;11.20;5.43;;;;;;;21.51;70.70;100721.56;5047503;28;19921;-75
2022/09/09 07:46:11;;;;;;;13.90;5.78;;;;;;;21.69;70.79;100741.25;5040478;28;20166;-74
2022/09/09 07:48:43;;;;;;;9.85;5.47;;;;;;;21.59;70.30;100704.78;5043125;28;20160;-76
2022/09/09 07:51:16;;;;;;;11.13;5.22;;;;;;;21.68;70.45;100712.03;5045909;28;20053;-77
2022/09/09 07:53:44;;;;;;;12.27;5.55;;;;;;;21.92;70.12;100736.00;5039609;28;20744;-78
2022/09/09 07:56:21;;;;;;;14.73;6.75;;;;;;;22.15;69.90;100740.09;5037770;28;20131;-75
2022/09/09 07:58:49;;;;;;;12.80;7.07;;;;;;;22.41;69.43;100744.56;5045340;28;20052;-79
2022/09/09 08:01:39;;;;;;;10.60;5.70;;;;;;;22.50;69.35;100727.38;5037187;28;20514;-76
2022/09/09 08:04:14;;;;;;;10.80;5.97;;;;;;;22.71;68.77;100722.38;5043983;28;20049;-78
2022/09/09 08:06:47;;;;;;;12.50;6.97;;;;;;;22.83;68.34;100705.25;5024011;28;20060;-75
2022/09/09 08:09:16;;;;;;;10.15;5.95;;;;;;;23.41;68.32;100745.66;5040707;28;20059;-68
2022/09/09 08:11:44;;;;;;;11.65;6.38;;;;;;;23.70;67.49;100735.09;5040258;28;20053;-70
2022/09/09 08:14:12;;;;;;;9.63;5.78;;;;;;;24.10;66.71;100745.50;5042175;28;20053;-69
2022/09/09 08:16:44;;;;;;;12.40;6.35;;;;;;;24.23;66.25;100749.13;5042740;28;20590;-68
2022/09/09 08:19:11;;;;;;;9.70;5.78;;;;;;;24.32;65.91;100744.06;5044661;28;20060;-67
2022/09/09 08:21:41;;;;;;;11.70;6.05;;;;;;;24.55;65.35;100752.81;5041065;28;20061;-69
2022/09/09 08:24:08;;;;;;;;;;;;;;;24.47;66.62;100756.66;5045342;28;20060;-77
2022/09/09 08:26:37;;;;;;;11.18;6.03;;;;;;;24.36;65.64;100731.50;5037161;28;20322;-73
2022/09/09 08:29:07;;;;;;;11.20;5.90;;;;;;;24.52;65.49;100739.28;5050762;22;20048;-59
2022/09/09 08:31:37;;;;;;;13.25;7.03;;;;;;;24.66;64.94;100742.47;5023696;28;20050;-60
2022/09/09 08:34:05;;;;;;;10.85;6.25;;;;;;;24.98;64.47;100754.63;5021216;28;20053;-60
2022/09/09 08:36:35;;;;;;;10.90;5.63;;;;;;;25.47;63.72;100758.94;5022759;28;20073;-60
2022/09/09 08:39:04;;;;;;;7.88;5.28;;;;;;;26.07;62.71;100753.59;5020644;28;20388;-59
2022/09/09 08:42:02;;;;;;;8.65;5.25;;;;;;;26.82;61.89;100751.19;5022384;28;20167;-60
2022/09/09 08:45:11;;;;;;;12.35;7.32;;;;;;;27.01;60.44;100745.31;5017990;28;20480;-60
2022/09/09 08:47:45;;;;;;;17.65;7.50;;;;;;;27.02;60.42;100761.31;5004975;28;20563;-59
2022/09/09 08:50:23;;;;;;;12.27;6.45;;;;;;;27.09;60.09;100772.88;5021980;28;20049;-62
2022/09/09 08:53:08;;;;;;;17.38;7.30;;;;;;;27.17;59.27;100766.03;5022116;28;20154;-58
2022/09/09 08:55:44;;;;;;;19.38;7.78;;;;;;;26.98;59.70;100776.81;5020809;28;20057;-60
2022/09/09 08:58:20;;;;;;;14.65;7.53;;;;;;;26.91;59.63;100771.78;5025272;28;20053;-59
2022/09/09 09:01:02;;;;;;;18.50;7.13;;;;;;;27.03;59.24;100776.44;5017731;28;20069;-58
2022/09/09 09:03:45;;;;;;;10.93;6.20;;;;;;;27.21;58.76;100765.25;5021869;28;20060;-59
2022/09/09 09:06:30;;;;;;;12.02;6.68;;;;;;;27.17;58.87;100783.22;5019484;28;20053;-59
2022/09/09 09:09:02;;;;;;;12.98;6.70;;;;;;;26.90;58.52;100790.19;5015976;28;20064;-58
2022/09/09 09:11:47;;;;;;;15.05;8.05;;;;;;;26.57;59.00;100786.00;5017303;28;21003;-59
2022/09/09 09:14:21;;;;;;;12.70;6.65;;;;;;;26.57;59.04;100788.03;5000771;28;20045;-61
2022/09/09 09:16:57;;;;;;;11.75;7.45;;;;;;;26.51;58.41;100784.66;5019077;28;20053;-60
2022/09/09 09:19:27;;;;;;;9.55;5.68;;;;;;;26.37;58.56;100778.66;5022323;28;20045;-65
2022/09/09 09:22:46;;;;;;;11.18;7.32;;;;;;;26.07;59.30;100782.22;5014989;28;20050;-60
2022/09/09 09:25:28;;;;;;;10.95;6.22;;;;;;;26.00;59.63;100782.91;4959383;28;20144;-61
2022/09/09 09:28:06;;;;;;;10.73;6.65;;;;;;;25.73;59.34;100735.38;5020254;28;20053;-60
2022/09/09 09:30:42;;;;;;;15.55;7.18;;;;;;;25.91;59.52;100772.91;5023253;28;20060;-63
2022/09/09 09:33:20;;;;;;;13.48;6.57;;;;;;;26.13;59.45;100779.88;5027762;28;20126;-61
2022/09/09 09:35:50;;;;;;;9.02;4.63;;;;;;;26.26;58.43;100786.22;5020390;28;20065;-61
2022/09/09 09:38:23;;;;;;;3.80;2.20;;;;;;;26.33;58.66;100783.50;5023304;28;20064;-62
2022/09/09 09:41:10;;;;;;;4.03;2.45;;;;;;;26.64;58.35;100791.84;5022317;28;20358;-59
2022/09/09 09:43:42;;;;;;;3.88;1.60;;;;;;;27.10;57.36;100782.28;5022632;28;20049;-60
2022/09/09 09:46:25;;;;;;;3.90;2.20;;;;;;;27.29;56.88;100787.09;5027735;28;21880;-61
2022/09/09 09:49:05;;;;;;;9.95;4.13;;;;;;;27.65;56.52;100786.31;5005090;28;20091;-59
2022/09/09 09:51:33;;;;;;;4.60;2.30;;;;;;;28.05;55.33;100793.34;5027490;28;20064;-60
2022/09/09 09:54:30;;;;;;;2.85;1.85;;;;;;;27.68;56.19;100789.63;5026218;28;20132;-61
2022/09/09 09:57:08;;;;;;;3.90;2.17;;;;;;;27.80;56.19;100793.09;5021342;28;20050;-60
2022/09/09 09:59:36;;;;;;;8.38;4.07;;;;;;;28.55;54.87;100801.66;5029219;28;20108;-59
2022/09/09 10:02:18;;;;;;;7.40;3.85;;;;;;;28.92;54.14;100792.88;5027084;28;20131;-61
2022/09/09 10:04:46;;;;;;;7.82;3.42;;;;;;;29.19;53.36;100804.16;5027986;28;20052;-60
2022/09/09 10:07:19;;;;;;;4.35;2.90;;;;;;;29.65;52.61;100798.66;5025473;28;20077;-60
2022/09/09 10:09:53;;;;;;;6.03;3.30;;;;;;;30.33;51.63;100798.84;5028164;28;20054;-60
2022/09/09 10:12:39;;;;;;;4.38;2.78;;;;;;;30.54;51.56;100791.47;5019747;28;20053;-71
2022/09/09 10:15:24;;;;;;;4.82;3.03;;;;;;;31.17;51.29;100792.63;5026214;28;20415;-69
2022/09/09 10:17:58;;;;;;;4.22;2.55;;;;;;;31.68;49.82;100794.09;5029753;28;20041;-69
2022/09/09 10:21:02;;;;;;;3.50;2.17;;;;;;;32.12;49.19;100795.53;5019946;28;20045;-67
2022/09/09 10:23:57;;;;;;;28.98;5.65;;;;;;;32.70;48.40;100801.72;5026094;28;20060;-68
2022/09/09 10:27:02;;;;;;;4.22;3.13;;;;;;;33.30;48.16;100803.22;5024339;28;20060;-68
2022/09/09 10:29:57;;;;;;;4.32;2.80;;;;;;;33.62;47.08;100802.84;4946261;28;20067;-67
2022/09/09 10:32:42;;;;;;;5.35;3.13;;;;;;;33.14;46.59;100806.69;4951702;28;20187;-67
2022/09/09 10:35:27;;;;;;;3.88;2.78;;;;;;;32.73;46.31;100804.59;5006296;28;20507;-66
2022/09/09 10:38:23;;;;;;;5.20;2.20;;;;;;;32.38;46.71;100804.84;5024954;28;20850;-66
2022/09/09 10:40:53;;;;;;;6.40;2.10;;;;;;;32.35;46.45;100802.81;5022636;28;20051;-67
2022/09/09 10:43:39;;;;;;;6.72;2.50;;;;;;;32.32;46.15;100801.59;5021514;28;20415;-66
2022/09/09 10:46:28;;;;;;;4.30;2.90;;;;;;;32.59;46.10;100793.16;5029777;28;20057;-66
2022/09/09 12:07:56;;;;;;;12.40;8.35;;;;;;;39.65;31.54;100743.34;6161203;22;1476702;-71
2022/09/09 12:10:32;;;;;;;16.40;7.30;;;;;;;39.63;31.13;100702.91;6194779;23;20020;-71
2022/09/09 12:13:19;;;;;;;16.02;8.02;;;;;;;40.21;31.06;100731.50;6222099;23;20025;-71
2022/09/09 12:15:54;;;;;;;12.10;7.93;;;;;;;40.49;30.02;100746.19;6222416;23;20107;-71
2022/09/09 12:18:39;;;;;;;14.00;7.82;;;;;;;40.83;29.74;100747.25;6220176;23;20025;-71
2022/09/09 12:21:21;;;;;;;13.50;7.72;;;;;;;40.98;29.46;100746.09;6222935;23;20095;-72
2022/09/09 12:24:13;;;;;;;12.32;7.22;;;;;;;41.22;29.14;100694.88;6222407;23;20454;-71
2022/09/09 12:27:07;;;;;;;14.05;7.85;;;;;;;41.79;28.11;100744.91;6202892;23;20332;-71
2022/09/09 12:29:49;;;;;;;18.45;8.23;;;;;;;42.18;27.83;100759.78;6220456;23;20044;-72
2022/09/09 12:32:24;;;;;;;11.95;7.07;;;;;;;41.96;27.87;100724.84;6219131;23;20028;-72
2022/09/09 12:35:03;;;;;;;13.40;7.45;;;;;;;41.48;28.08;100722.53;6219530;23;20051;-72
2022/09/09 12:37:42;;;;;;;16.63;7.90;;;;;;;40.96;28.49;100724.50;6221541;23;20025;-72
2022/09/09 12:40:23;;;;;;;16.58;8.85;;;;;;;41.11;28.09;100742.25;6219553;23;20024;-72
2022/09/09 12:42:51;;;;;;;14.23;8.48;;;;;;;40.71;27.73;100741.03;6223111;23;20024;-72
2022/09/09 12:45:26;;;;;;;16.37;9.03;;;;;;;40.43;28.40;100737.22;6222672;23;20024;-75
2022/09/09 12:47:55;;;;;;;15.20;8.75;;;;;;;40.25;28.36;100735.06;6222144;23;20043;-72
2022/09/09 12:50:28;;;;;;;13.80;8.90;;;;;;;40.40;27.95;100731.53;6220275;23;20042;-71
2022/09/09 12:52:58;;;;;;;12.85;8.20;;;;;;;40.37;28.23;100723.72;6190873;23;20024;-71
2022/09/09 12:55:30;;;;;;;14.13;8.60;;;;;;;40.43;27.94;100739.34;6213191;23;20020;-72
2022/09/09 12:57:59;;;;;;;17.63;8.10;;;;;;;40.86;27.24;100732.47;6212606;23;20481;-74
2022/09/09 13:00:26;;;;;;;13.90;9.40;;;;;;;41.24;27.09;100739.16;6213530;23;20039;-65
2022/09/09 13:02:56;;;;;;;17.05;9.35;;;;;;;41.15;26.74;100737.84;6214921;23;20490;-66
2022/09/09 13:05:25;;;;;;;14.68;9.00;;;;;;;40.39;27.68;100729.91;6215156;23;20025;-65